Time;durP1;ratioP1;P1;durP2;ratioP2;P2;SDS_P1;SDS_P2;PMS_P1;PMS_P2;Temp;Humidity;BMP_temperature;BMP_pressure;BME280_temperature;BME280_humidity;BME280_pressure;Samples;Min_cycle;Max_cycle;Signal;HPM_P1;HPM_P2
2023/08/13 00:01:53;;;;;;;9.60;7.70;;;;;;;17.65;75.82;99023.25;221591;1301;22599;-75
2023/08/13 00:06:55;;;;;;;10.70;7.60;;;;;;;17.63;76.01;99023.11;221535;1305;22575;-75
2023/08/13 00:11:58;;;;;;;11.20;7.90;;;;;;;17.59;76.03;99023.64;221465;1302;22596;-75
2023/08/13 00:17:00;;;;;;;9.10;7.50;;;;;;;17.58;76.22;99030.41;221503;1303;23656;-75
2023/08/13 00:22:02;;;;;;;9.00;7.20;;;;;;;17.55;76.18;99024.98;221475;1305;25341;-76
2023/08/13 00:27:09;;;;;;;9.80;7.60;;;;;;;17.49;76.10;99021.89;221500;1304;22611;-75
2023/08/13 00:32:11;;;;;;;8.80;7.10;;;;;;;17.45;76.38;99018.26;221621;1302;22568;-75
2023/08/13 00:37:14;;;;;;;9.60;7.30;;;;;;;17.40;76.25;99018.69;221322;1295;25322;-75
2023/08/13 00:42:16;;;;;;;7.90;6.70;;;;;;;17.38;76.48;99021.09;221321;1305;22582;-75
2023/08/13 00:47:19;;;;;;;7.00;6.20;;;;;;;17.39;76.77;99023.91;221315;1304;22589;-76
2023/08/13 00:52:21;;;;;;;9.70;6.40;;;;;;;17.44;76.75;99027.23;221470;1306;24251;-75
2023/08/13 00:57:23;;;;;;;6.80;6.20;;;;;;;17.46;76.63;99032.50;221524;1295;22594;-75
2023/08/13 01:02:26;;;;;;;8.70;6.50;;;;;;;17.47;76.54;99028.27;221320;1304;22618;-75
2023/08/13 01:07:47;;;;;;;7.80;6.60;;;;;;;17.44;76.40;99015.59;221269;1306;22591;-75
2023/08/13 01:12:59;;;;;;;8.10;5.70;;;;;;;17.40;76.62;99013.95;221568;1305;23305;-76
2023/08/13 01:18:02;;;;;;;6.20;5.60;;;;;;;17.40;76.84;99016.34;221486;1301;22675;-76
2023/08/13 01:23:04;;;;;;;7.70;5.70;;;;;;;17.40;76.82;99020.12;221578;1302;22569;-76
2023/08/13 01:28:12;;;;;;;6.40;5.50;;;;;;;17.37;76.72;99027.44;221594;1295;22613;-76
2023/08/13 01:33:26;;;;;;;6.40;5.60;;;;;;;17.32;76.71;99033.35;221606;1304;22564;-75
2023/08/13 01:38:30;;;;;;;10.60;4.90;;;;;;;17.28;76.92;99033.55;221507;1304;22594;-75
2023/08/13 01:43:33;;;;;;;5.40;5.00;;;;;;;17.25;76.70;99029.81;221594;1303;24416;-76
2023/08/13 01:48:35;;;;;;;7.10;5.10;;;;;;;17.20;76.99;99025.15;221576;1286;22598;-75
2023/08/13 01:53:36;;;;;;;6.00;5.30;;;;;;;17.16;76.96;99017.40;221388;1306;24285;-75
2023/08/13 01:58:38;;;;;;;5.40;4.90;;;;;;;17.14;77.06;99011.52;221386;1302;22591;-75
2023/08/13 02:03:41;;;;;;;6.00;4.30;;;;;;;17.18;77.25;99006.56;221513;1302;25292;-75
2023/08/13 02:08:43;;;;;;;4.90;4.30;;;;;;;17.27;77.29;99011.57;221468;1301;22587;-75
2023/08/13 02:13:46;;;;;;;5.20;4.50;;;;;;;17.38;77.25;99021.30;221533;1302;22568;-76
2023/08/13 02:18:48;;;;;;;5.20;4.50;;;;;;;17.45;77.08;99021.62;221180;1305;22644;-75
2023/08/13 02:23:50;;;;;;;6.00;4.20;;;;;;;17.45;76.88;99021.79;221464;1305;22598;-75
2023/08/13 02:28:52;;;;;;;4.60;4.10;;;;;;;17.42;76.76;99017.67;221359;1298;22684;-75
2023/08/13 02:33:54;;;;;;;7.80;4.20;;;;;;;17.39;76.89;99012.83;221188;1301;22593;-75
2023/08/13 02:38:56;;;;;;;4.70;4.30;;;;;;;17.36;77.02;99010.90;221148;1285;22690;-76
2023/08/13 02:44:00;;;;;;;4.80;4.20;;;;;;;17.35;77.15;99016.42;221556;1299;22587;-75
2023/08/13 02:49:02;;;;;;;4.60;4.10;;;;;;;17.34;77.26;99016.15;221470;1302;22579;-75
2023/08/13 02:54:04;;;;;;;4.80;4.20;;;;;;;17.37;77.27;99009.16;221263;1304;22647;-75
2023/08/13 02:59:07;;;;;;;4.80;4.10;;;;;;;17.42;77.14;99010.10;221472;1303;22573;-75
2023/08/13 03:04:09;;;;;;;5.40;4.60;;;;;;;17.51;77.28;99014.18;221402;1300;25438;-74
2023/08/13 03:09:20;;;;;;;4.60;4.20;;;;;;;17.59;77.30;99011.52;221498;1302;22499;-75
2023/08/13 03:14:22;;;;;;;4.70;4.10;;;;;;;17.67;77.16;99013.56;221627;1301;22581;-75
2023/08/13 03:19:25;;;;;;;5.30;4.20;;;;;;;17.72;76.93;99009.59;221576;1298;25190;-75
2023/08/13 03:24:28;;;;;;;5.20;4.20;;;;;;;17.76;76.91;99006.38;221538;1305;22592;-75
2023/08/13 03:29:32;;;;;;;4.50;3.90;;;;;;;17.79;76.83;99004.81;221477;1285;22556;-75
2023/08/13 03:34:34;;;;;;;4.20;3.80;;;;;;;17.82;76.72;99006.80;221299;1305;22634;-75
2023/08/13 03:39:36;;;;;;;4.40;4.00;;;;;;;17.87;76.65;99011.05;221541;1305;22576;-75
2023/08/13 03:44:41;;;;;;;5.50;4.00;;;;;;;17.95;76.68;99017.13;221536;1305;22587;-75
2023/08/13 03:49:43;;;;;;;6.10;4.10;;;;;;;18.03;76.59;99020.10;221584;1298;22565;-75
2023/08/13 03:54:44;;;;;;;4.20;3.80;;;;;;;18.10;76.56;99023.58;221534;1305;22580;-75
2023/08/13 03:59:46;;;;;;;4.60;3.70;;;;;;;18.16;76.36;99025.02;221450;1300;22583;-75
2023/08/13 04:04:50;;;;;;;4.10;3.60;;;;;;;18.24;76.22;99021.41;221629;1301;22594;-75
2023/08/13 04:09:52;;;;;;;4.00;3.20;;;;;;;18.31;76.22;99026.17;221466;1295;22580;-76
2023/08/13 04:14:54;;;;;;;5.30;3.20;;;;;;;18.42;76.18;99028.51;221534;1305;22553;-75
2023/08/13 04:19:57;;;;;;;4.50;3.20;;;;;;;18.54;76.08;99029.86;221600;1301;22600;-75
2023/08/13 04:24:59;;;;;;;3.70;3.30;;;;;;;18.65;75.91;99029.23;221625;1298;24248;-75
2023/08/13 04:30:01;;;;;;;4.10;3.20;;;;;;;18.76;75.70;99034.92;221510;1300;22633;-75
2023/08/13 04:35:05;;;;;;;4.30;3.30;;;;;;;18.87;75.57;99038.96;221541;1301;22590;-75
2023/08/13 04:40:08;;;;;;;4.00;3.30;;;;;;;18.97;75.46;99042.94;221571;1298;24489;-75
2023/08/13 04:45:12;;;;;;;4.40;3.00;;;;;;;19.09;75.26;99038.08;221520;1303;22580;-75
2023/08/13 04:50:16;;;;;;;7.80;3.50;;;;;;;19.20;75.10;99039.77;221613;1301;22562;-75
2023/08/13 04:55:19;;;;;;;4.30;3.30;;;;;;;19.32;74.89;99040.86;221592;1302;25375;-75
2023/08/13 05:00:21;;;;;;;4.70;3.20;;;;;;;19.43;74.76;99043.60;221541;1301;25275;-75
2023/08/13 05:05:24;;;;;;;3.50;3.20;;;;;;;19.56;74.63;99043.88;221445;1304;22556;-75
2023/08/13 05:10:26;;;;;;;5.40;3.10;;;;;;;19.72;74.35;99041.34;221414;1304;22565;-74
2023/08/13 05:15:28;;;;;;;4.20;3.40;;;;;;;19.89;74.06;99047.75;221510;1301;23077;-74
2023/08/13 05:20:31;;;;;;;3.10;2.80;;;;;;;20.06;73.86;99047.30;221629;1302;22573;-75
2023/08/13 05:25:38;;;;;;;3.30;3.00;;;;;;;20.22;73.48;99054.31;221520;1301;22569;-75
2023/08/13 05:30:41;;;;;;;2.90;2.70;;;;;;;20.35;73.14;99057.71;221655;1305;22641;-75
2023/08/13 05:35:43;;;;;;;3.10;2.90;;;;;;;20.48;72.78;99053.52;221521;1304;22560;-75
2023/08/13 05:40:47;;;;;;;4.40;2.80;;;;;;;20.59;72.52;99053.33;221265;1305;22774;-75
2023/08/13 05:45:50;;;;;;;3.20;2.90;;;;;;;20.71;72.39;99053.02;221610;1301;22564;-75
2023/08/13 05:50:52;;;;;;;3.30;3.00;;;;;;;20.80;72.06;99058.77;221583;1304;24432;-75
2023/08/13 05:55:59;;;;;;;2.90;2.60;;;;;;;20.89;71.79;99063.20;221592;1301;22571;-75
2023/08/13 06:01:01;;;;;;;4.90;2.80;;;;;;;21.01;71.78;99060.61;221561;1298;22577;-75
2023/08/13 06:06:03;;;;;;;3.70;3.40;;;;;;;21.16;71.53;99064.54;221513;1301;22569;-75
2023/08/13 06:11:05;;;;;;;4.10;3.20;;;;;;;21.32;71.40;99065.81;221485;1304;22597;-75
2023/08/13 06:16:07;;;;;;;3.40;2.80;;;;;;;21.47;71.06;99064.77;221513;1304;22564;-75
2023/08/13 06:21:10;;;;;;;3.40;3.10;;;;;;;21.63;70.75;99062.52;221318;1301;24280;-75
2023/08/13 06:26:12;;;;;;;4.10;3.00;;;;;;;21.81;70.45;99057.92;221501;1303;22561;-75
2023/08/13 06:31:14;;;;;;;2.90;2.70;;;;;;;22.00;70.28;99057.48;221442;1299;22568;-75
2023/08/13 06:36:36;;;;;;;4.50;3.70;;;;;;;22.24;69.86;99057.60;221393;1301;22568;-76
2023/08/13 06:41:38;;;;;;;3.20;3.00;;;;;;;22.46;69.42;99055.45;221214;1304;22569;-75
2023/08/13 06:46:40;;;;;;;6.20;3.40;;;;;;;22.69;69.04;99062.02;221179;1301;22579;-74
2023/08/13 06:51:42;;;;;;;3.10;2.90;;;;;;;22.92;68.41;99058.58;221445;1304;22634;-75
2023/08/13 06:56:44;;;;;;;3.80;3.50;;;;;;;23.07;67.92;99062.41;221411;1298;22678;-75
2023/08/13 07:01:47;;;;;;;3.80;3.40;;;;;;;23.33;68.09;99062.75;221482;1305;22633;-74
2023/08/13 07:06:49;;;;;;;3.50;3.20;;;;;;;23.57;67.42;99071.92;221543;1301;22624;-74
2023/08/13 07:11:52;;;;;;;4.30;3.80;;;;;;;23.72;66.92;99078.02;221308;1305;22656;-74
2023/08/13 07:16:54;;;;;;;3.60;3.30;;;;;;;23.85;66.74;99080.53;221227;1298;22601;-74
2023/08/13 07:21:56;;;;;;;4.10;3.70;;;;;;;23.98;66.28;99085.08;221192;1305;22591;-75
2023/08/13 07:26:58;;;;;;;4.40;3.50;;;;;;;24.09;65.80;99092.27;221454;1304;24257;-75
2023/08/13 07:32:01;;;;;;;5.90;4.30;;;;;;;24.13;65.40;99092.92;221342;1305;22565;-76
2023/08/13 07:37:06;;;;;;;6.80;3.70;;;;;;;24.16;65.20;99097.25;221591;1305;22588;-75
2023/08/13 07:42:08;;;;;;;4.10;3.60;;;;;;;24.12;64.62;99095.25;221510;1305;22577;-75
2023/08/13 07:47:11;;;;;;;4.10;3.60;;;;;;;24.19;65.22;99093.22;221548;1304;22564;-77
2023/08/13 07:52:13;;;;;;;4.00;3.60;;;;;;;24.37;65.16;99089.79;221617;1301;22574;-76
2023/08/13 07:57:15;;;;;;;3.70;3.40;;;;;;;24.51;64.04;99088.96;221528;1292;25353;-75
2023/08/13 08:02:17;;;;;;;6.40;3.60;;;;;;;24.67;64.15;99094.48;221582;1305;22569;-75
2023/08/13 08:07:21;;;;;;;3.90;3.60;;;;;;;24.80;63.15;99093.91;221457;1305;22574;-75
2023/08/13 08:12:23;;;;;;;3.50;3.30;;;;;;;24.87;63.00;99089.73;221548;1304;22662;-75
2023/08/13 08:17:25;;;;;;;4.40;3.70;;;;;;;24.94;62.81;99090.06;221446;1304;25259;-76
2023/08/13 08:22:27;;;;;;;4.20;3.60;;;;;;;25.08;63.00;99088.80;221596;1301;24235;-76
2023/08/13 08:27:29;;;;;;;4.00;3.60;;;;;;;25.28;63.19;99094.73;221511;1301;22613;-76
2023/08/13 08:32:31;;;;;;;3.70;3.40;;;;;;;25.45;62.72;99095.42;221430;1300;22579;-76
2023/08/13 08:37:33;;;;;;;3.70;3.40;;;;;;;25.58;62.85;99093.75;221556;1283;24256;-75
2023/08/13 08:42:37;;;;;;;4.00;3.60;;;;;;;25.73;62.60;99094.51;221589;1305;25303;-76
2023/08/13 08:47:42;;;;;;;4.40;3.80;;;;;;;25.85;62.33;99095.25;221522;1304;22572;-76
2023/08/13 08:52:44;;;;;;;3.80;3.60;;;;;;;25.92;62.21;99087.79;221565;1302;22583;-75
2023/08/13 08:57:48;;;;;;;4.50;4.10;;;;;;;26.06;61.99;99088.45;221542;1282;22576;-75
2023/08/13 09:02:50;;;;;;;3.90;3.50;;;;;;;26.19;61.78;99084.56;221583;1303;22601;-76
2023/08/13 09:07:52;;;;;;;3.80;3.60;;;;;;;26.26;61.18;99083.00;221562;1304;22594;-75
2023/08/13 09:12:55;;;;;;;4.60;3.80;;;;;;;26.34;61.17;99080.09;221301;1306;22643;-76
2023/08/13 09:17:58;;;;;;;4.60;3.80;;;;;;;26.50;61.19;99077.62;221444;1298;24397;-76
2023/08/13 09:23:01;;;;;;;3.80;3.50;;;;;;;26.56;60.16;99080.66;221543;1305;22564;-75
2023/08/13 09:28:03;;;;;;;3.50;3.30;;;;;;;26.60;60.00;99077.96;221588;1299;22579;-74
2023/08/13 09:33:05;;;;;;;3.60;3.40;;;;;;;26.71;60.07;99073.90;221327;1304;22692;-74
2023/08/13 09:38:08;;;;;;;4.30;3.90;;;;;;;26.86;59.89;99075.38;221325;1305;24703;-74
2023/08/13 09:43:15;;;;;;;3.70;3.50;;;;;;;26.95;59.63;99069.07;221659;1299;22569;-75
2023/08/13 09:48:21;;;;;;;4.10;3.70;;;;;;;26.99;59.26;99070.92;221514;1288;22599;-75
2023/08/13 09:53:25;;;;;;;4.00;3.70;;;;;;;27.01;58.81;99069.10;221532;1304;25382;-74
2023/08/13 09:58:28;;;;;;;3.80;3.50;;;;;;;27.11;59.47;99062.77;221612;1301;22553;-75
2023/08/13 10:03:31;;;;;;;3.70;3.50;;;;;;;27.30;59.35;99059.70;221541;1306;22583;-75
2023/08/13 10:08:33;;;;;;;7.00;3.40;;;;;;;27.45;59.24;99060.98;221557;1287;22633;-74
2023/08/13 10:13:35;;;;;;;3.80;3.50;;;;;;;27.60;58.83;99066.23;221531;1302;22572;-75
2023/08/13 10:18:37;;;;;;;5.30;3.70;;;;;;;27.67;58.34;99059.46;221483;1301;22586;-75
2023/08/13 10:23:40;;;;;;;3.80;3.50;;;;;;;27.66;57.96;99055.23;221482;1304;22680;-75
2023/08/13 10:28:52;;;;;;;6.70;3.60;;;;;;;27.74;58.23;99054.38;221574;1301;25740;-75
2023/08/13 10:34:11;;;;;;;4.10;3.70;;;;;;;27.88;58.26;99054.32;221559;1303;22579;-75
2023/08/13 10:39:32;;;;;;;5.30;3.60;;;;;;;27.91;57.76;99053.35;221620;1305;22565;-74
2023/08/13 10:44:40;;;;;;;4.10;3.80;;;;;;;27.96;57.56;99054.90;221620;1303;22595;-75
2023/08/13 10:49:42;;;;;;;4.00;3.70;;;;;;;28.11;57.46;99054.95;221309;1301;116127;-75
2023/08/13 10:54:44;;;;;;;3.70;3.20;;;;;;;28.18;56.62;99056.98;221269;1304;22639;-74
2023/08/13 10:59:46;;;;;;;3.80;3.60;;;;;;;28.22;56.48;99053.16;221537;1301;22567;-75
2023/08/13 11:04:48;;;;;;;4.00;3.60;;;;;;;28.30;56.53;99052.88;221337;1301;22568;-75
2023/08/13 11:09:50;;;;;;;3.60;3.30;;;;;;;28.48;56.81;99051.38;221500;1304;22583;-75
2023/08/13 11:14:52;;;;;;;4.00;3.60;;;;;;;28.58;55.72;99054.13;221319;1305;25961;-75
2023/08/13 11:19:57;;;;;;;4.20;3.60;;;;;;;28.63;56.20;99049.85;221526;1301;22571;-75
2023/08/13 11:24:59;;;;;;;3.90;3.70;;;;;;;28.80;56.21;99046.50;221553;1304;22579;-75
2023/08/13 11:30:02;;;;;;;4.40;4.00;;;;;;;28.94;55.25;99043.14;221299;1298;22670;-76
2023/08/13 11:35:09;;;;;;;4.10;3.70;;;;;;;28.93;54.47;99042.80;221537;1304;23387;-75
2023/08/13 11:40:13;;;;;;;4.50;4.10;;;;;;;29.01;54.70;99041.88;221505;1304;22533;-75
2023/08/13 11:45:15;;;;;;;4.00;3.60;;;;;;;29.13;54.59;99037.98;221295;1304;22561;-76
2023/08/13 11:50:23;;;;;;;4.40;3.70;;;;;;;29.22;54.43;99038.08;221570;1298;22598;-75
2023/08/13 11:55:25;;;;;;;3.70;3.40;;;;;;;29.34;54.36;99039.39;221476;1301;22576;-75
2023/08/13 12:00:27;;;;;;;4.10;3.80;;;;;;;29.47;54.38;99036.41;221242;1295;22564;-75
2023/08/13 12:05:32;;;;;;;4.20;3.80;;;;;;;29.57;53.83;99032.94;221579;1305;22584;-75
2023/08/13 12:10:34;;;;;;;4.10;3.70;;;;;;;29.63;53.68;99025.89;221519;1304;22729;-76
2023/08/13 12:15:37;;;;;;;4.50;3.70;;;;;;;29.68;53.20;99027.28;221425;1304;22610;-76
2023/08/13 12:20:40;;;;;;;4.60;4.30;;;;;;;29.66;53.21;99024.27;221594;1306;22596;-75
2023/08/13 12:25:42;;;;;;;4.20;3.80;;;;;;;29.70;53.69;99024.41;221560;1304;22702;-75
2023/08/13 12:30:47;;;;;;;4.00;3.70;;;;;;;29.72;53.28;99022.23;221377;1304;25360;-75
2023/08/13 12:35:49;;;;;;;4.60;3.90;;;;;;;29.77;53.46;99016.46;221335;1299;22582;-75
2023/08/13 12:40:51;;;;;;;4.70;4.20;;;;;;;29.87;53.26;99016.89;221633;1302;22579;-76
2023/08/13 12:45:53;;;;;;;4.20;3.90;;;;;;;29.94;53.06;99012.59;221538;1303;22679;-75
2023/08/13 12:50:55;;;;;;;4.40;4.10;;;;;;;29.87;53.01;99009.52;221615;1298;22580;-77
2023/08/13 12:56:04;;;;;;;4.40;4.00;;;;;;;29.91;53.22;99007.75;221481;1299;22580;-75
2023/08/13 13:01:06;;;;;;;;;;;;;;;30.01;53.76;99002.88;221629;1301;22539;-75
2023/08/13 13:06:08;;;;;;;4.40;4.10;;;;;;;30.15;53.08;99002.85;221622;1302;22572;-75
2023/08/13 13:11:10;;;;;;;4.20;3.90;;;;;;;30.19;52.27;99005.17;221616;1302;22597;-76
2023/08/13 13:16:13;;;;;;;4.50;4.20;;;;;;;30.25;52.59;99003.20;221600;1299;22571;-76
2023/08/13 13:21:14;;;;;;;4.50;4.20;;;;;;;30.42;52.85;98997.48;221516;1301;26101;-76
2023/08/13 13:26:16;;;;;;;5.30;4.10;;;;;;;30.52;52.79;98991.61;221551;1306;22582;-76
2023/08/13 13:31:19;;;;;;;4.80;4.10;;;;;;;30.56;52.29;98987.23;221570;1302;22559;-76
2023/08/13 13:36:22;;;;;;;4.40;3.90;;;;;;;30.61;52.35;98985.16;221254;1299;22608;-77
2023/08/13 13:41:24;;;;;;;4.30;3.90;;;;;;;30.69;51.97;98980.73;221538;1301;22584;-75
2023/08/13 13:46:25;;;;;;;4.60;4.30;;;;;;;30.78;51.68;98975.52;221502;1288;22572;-75
2023/08/13 13:51:28;;;;;;;4.40;4.00;;;;;;;30.80;51.50;98971.42;221249;1304;22566;-75
2023/08/13 13:56:30;;;;;;;4.50;4.10;;;;;;;30.79;51.16;98970.20;221467;1305;22580;-75
2023/08/13 14:01:31;;;;;;;4.10;3.80;;;;;;;30.73;50.99;98972.77;221451;1302;25440;-74
2023/08/13 14:06:33;;;;;;;4.10;3.80;;;;;;;30.76;51.32;98965.38;221500;1302;22674;-75
2023/08/13 14:11:37;;;;;;;4.50;3.80;;;;;;;30.67;51.41;98969.14;221508;1304;22572;-75
2023/08/13 14:16:39;;;;;;;4.70;4.30;;;;;;;30.61;51.45;98965.96;221556;1303;22574;-75
2023/08/13 14:21:42;;;;;;;4.10;3.80;;;;;;;30.65;51.64;98960.17;221495;1304;22598;-75
2023/08/13 14:26:44;;;;;;;4.10;3.80;;;;;;;30.70;51.22;98946.85;221469;1305;22591;-76
2023/08/13 14:31:47;;;;;;;4.00;3.70;;;;;;;30.73;51.45;98942.48;221513;1305;22566;-76
2023/08/13 14:36:49;;;;;;;3.10;2.90;;;;;;;30.69;51.42;98936.48;221504;1288;22586;-75
2023/08/13 14:41:51;;;;;;;4.70;4.10;;;;;;;30.54;51.32;98932.20;221238;1304;23118;-75
2023/08/13 14:46:53;;;;;;;4.50;4.20;;;;;;;30.35;51.07;98940.13;221270;1305;22685;-74
2023/08/13 14:51:55;;;;;;;4.10;3.80;;;;;;;30.23;51.55;98941.00;221499;1305;22614;-75
2023/08/13 14:56:57;;;;;;;4.60;4.30;;;;;;;30.27;52.00;98934.83;221525;1305;25322;-75
2023/08/13 15:01:59;;;;;;;4.60;4.20;;;;;;;30.40;52.54;98932.83;221543;1305;22573;-75
2023/08/13 15:07:01;;;;;;;4.70;4.40;;;;;;;30.49;51.65;98930.91;221606;1304;24236;-75
2023/08/13 15:12:03;;;;;;;4.80;4.40;;;;;;;30.47;51.89;98930.52;221617;1302;22664;-75
2023/08/13 15:17:05;;;;;;;4.70;4.30;;;;;;;30.56;52.16;98929.48;221497;1295;22571;-75
2023/08/13 15:22:07;;;;;;;4.50;4.10;;;;;;;30.57;51.74;98934.67;221183;1305;22580;-75
2023/08/13 15:27:09;;;;;;;4.80;4.10;;;;;;;30.49;52.12;98934.61;221290;1304;24282;-74
2023/08/13 15:32:11;;;;;;;4.70;4.20;;;;;;;30.42;52.24;98931.27;221498;1305;22573;-75
2023/08/13 15:37:13;;;;;;;5.70;3.90;;;;;;;30.27;52.41;98928.84;221621;1302;22573;-75
2023/08/13 15:42:15;;;;;;;4.40;3.90;;;;;;;30.16;52.90;98925.41;221337;1304;22601;-74
2023/08/13 15:47:17;;;;;;;4.00;3.70;;;;;;;30.17;52.60;98927.94;221570;1295;22601;-75
2023/08/13 15:52:19;;;;;;;4.30;4.00;;;;;;;30.23;52.37;98921.60;221595;1305;22580;-75
2023/08/13 15:57:21;;;;;;;5.60;4.30;;;;;;;30.32;52.61;98915.50;221631;1305;25344;-74
2023/08/13 16:02:24;;;;;;;5.30;3.90;;;;;;;30.43;52.92;98908.33;221601;1298;22695;-75
2023/08/13 16:07:26;;;;;;;4.40;4.00;;;;;;;30.42;52.84;98910.21;221594;1306;22625;-76
2023/08/13 16:12:28;;;;;;;3.10;2.60;;;;;;;30.32;52.74;98910.88;221394;1306;22626;-75
2023/08/13 16:17:29;;;;;;;4.30;3.90;;;;;;;30.29;52.99;98901.15;221619;1288;22621;-75
2023/08/13 16:22:32;;;;;;;4.20;3.50;;;;;;;30.31;52.92;98903.46;221492;1301;22642;-75
2023/08/13 16:27:34;;;;;;;4.10;3.60;;;;;;;30.31;52.97;98904.09;221694;1306;22585;-75
2023/08/13 16:32:36;;;;;;;4.70;4.30;;;;;;;30.18;52.93;98907.27;221554;1305;22596;-75
2023/08/13 16:37:39;;;;;;;4.20;3.80;;;;;;;29.92;53.11;98912.23;221594;1302;22607;-74
2023/08/13 16:42:40;;;;;;;4.10;3.80;;;;;;;29.67;53.72;98916.67;221654;1305;22609;-75
2023/08/13 16:48:00;;;;;;;4.30;3.90;;;;;;;29.43;54.33;98913.48;221521;1305;22720;-74
2023/08/13 16:53:02;;;;;;;6.80;4.00;;;;;;;29.26;54.68;98911.84;221630;1306;22555;-74
2023/08/13 16:58:04;;;;;;;4.70;4.20;;;;;;;29.11;54.87;98909.23;221537;1305;23362;-74
2023/08/13 17:03:06;;;;;;;5.60;4.20;;;;;;;28.98;55.10;98909.54;221618;1305;22574;-74
2023/08/13 17:08:08;;;;;;;5.90;4.00;;;;;;;28.87;55.33;98911.41;221451;1302;22607;-74
2023/08/13 17:13:10;;;;;;;5.00;4.10;;;;;;;28.79;55.17;98912.59;221364;1306;22573;-75
2023/08/13 17:18:12;;;;;;;4.40;4.00;;;;;;;28.65;55.37;98912.59;221624;1305;22572;-75
2023/08/13 17:23:14;;;;;;;4.10;3.70;;;;;;;28.48;55.95;98912.83;221579;1305;22576;-74
2023/08/13 17:28:16;;;;;;;6.10;4.60;;;;;;;28.33;56.53;98915.41;221638;1306;22593;-74
2023/08/13 17:33:18;;;;;;;5.20;4.70;;;;;;;28.15;56.71;98918.38;221561;1305;22592;-76
2023/08/13 17:38:20;;;;;;;7.00;4.90;;;;;;;28.01;57.21;98926.72;221611;1298;22617;-76
2023/08/13 17:43:22;;;;;;;6.30;5.00;;;;;;;27.83;57.49;98930.94;221602;1302;22577;-76
2023/08/13 17:48:24;;;;;;;5.90;5.30;;;;;;;27.60;57.80;98933.67;221575;1302;22597;-76
2023/08/13 17:53:26;;;;;;;7.50;5.60;;;;;;;27.40;58.41;98940.05;221560;1301;22571;-75
2023/08/13 17:58:28;;;;;;;6.10;5.50;;;;;;;27.19;58.97;98940.02;221593;1301;22570;-75
2023/08/13 18:03:36;;;;;;;5.50;5.00;;;;;;;26.97;59.36;98953.33;221581;1305;22572;-74
2023/08/13 18:08:38;;;;;;;6.10;5.50;;;;;;;26.74;59.77;98963.25;221536;1305;22539;-75
2023/08/13 18:13:41;;;;;;;8.80;5.60;;;;;;;26.51;60.22;98967.69;221592;1292;22572;-74
2023/08/13 18:18:43;;;;;;;6.00;5.00;;;;;;;26.28;60.72;98975.11;221595;1299;22579;-74
2023/08/13 18:23:45;;;;;;;6.50;5.90;;;;;;;26.10;61.12;98980.13;221460;1306;22648;-75
2023/08/13 18:28:46;;;;;;;6.30;5.70;;;;;;;25.92;61.44;98982.88;221481;1302;24282;-74
2023/08/13 18:33:49;;;;;;;7.00;5.90;;;;;;;25.77;61.95;98989.82;221197;1306;22579;-74
2023/08/13 18:38:51;;;;;;;6.90;6.10;;;;;;;25.62;62.39;98988.29;221428;1305;22580;-74
2023/08/13 18:43:53;;;;;;;6.70;5.70;;;;;;;25.47;62.68;98996.44;221402;1304;22576;-74
2023/08/13 18:48:56;;;;;;;6.70;6.10;;;;;;;25.33;63.01;98996.19;221419;1305;22581;-73
2023/08/13 18:53:58;;;;;;;7.00;6.00;;;;;;;25.19;63.48;98998.38;221447;1304;22568;-75
2023/08/13 18:59:01;;;;;;;7.00;6.30;;;;;;;25.07;63.75;99000.42;221261;1304;25458;-75
2023/08/13 19:04:04;;;;;;;8.50;5.80;;;;;;;24.95;64.12;99002.30;221540;1302;22591;-75
2023/08/13 19:09:06;;;;;;;6.40;5.80;;;;;;;24.90;64.56;99002.90;221561;1305;22568;-75
2023/08/13 19:14:10;;;;;;;9.50;6.00;;;;;;;24.88;64.85;99004.69;221474;1302;22595;-74
2023/08/13 19:19:12;;;;;;;6.70;6.10;;;;;;;24.89;65.12;99006.70;221487;1301;22582;-76
2023/08/13 19:24:14;;;;;;;6.60;5.80;;;;;;;24.91;65.26;99008.09;221380;1304;22582;-74
2023/08/13 19:29:16;;;;;;;5.20;4.80;;;;;;;24.91;65.34;99014.09;221592;1301;25533;-75
2023/08/13 19:34:18;;;;;;;9.90;5.70;;;;;;;24.92;65.41;99010.30;221559;1302;22643;-75
2023/08/13 19:39:21;;;;;;;6.30;5.60;;;;;;;24.90;65.46;99004.53;221475;1304;25425;-75
2023/08/13 19:44:23;;;;;;;6.50;5.70;;;;;;;24.89;65.74;99006.85;221585;1305;26105;-75
2023/08/13 19:49:38;;;;;;;6.20;5.60;;;;;;;24.86;65.85;99008.48;221583;1301;25617;-74
2023/08/13 19:54:40;;;;;;;7.80;5.70;;;;;;;24.82;65.93;99009.94;221474;1306;22597;-74
2023/08/13 19:59:41;;;;;;;6.40;5.80;;;;;;;24.76;66.04;99012.63;221591;1301;22605;-74
2023/08/13 20:04:43;;;;;;;6.90;6.30;;;;;;;24.70;66.18;99019.44;221482;1305;23815;-75
2023/08/13 20:09:45;;;;;;;8.30;6.20;;;;;;;24.64;66.45;99014.38;221617;1301;22579;-74
2023/08/13 20:14:48;;;;;;;7.50;6.20;;;;;;;24.60;66.63;99014.66;221465;1304;22611;-75
2023/08/13 20:19:50;;;;;;;8.10;5.90;;;;;;;24.56;66.61;99021.63;221490;1292;22604;-76
2023/08/13 20:24:52;;;;;;;6.10;5.40;;;;;;;24.52;66.76;99028.12;221595;1299;22608;-76
2023/08/13 20:29:54;;;;;;;10.20;6.40;;;;;;;24.50;66.87;99039.35;221622;1302;22559;-74
2023/08/13 20:34:56;;;;;;;6.20;5.70;;;;;;;24.49;66.94;99041.86;221593;1301;25511;-75
2023/08/13 20:39:58;;;;;;;7.90;6.00;;;;;;;24.46;67.06;99037.55;221496;1304;22575;-78
2023/08/13 20:45:02;;;;;;;6.20;5.60;;;;;;;24.40;67.10;99036.67;221499;1305;22580;-74
2023/08/13 20:50:08;;;;;;;6.20;5.60;;;;;;;24.33;67.03;99040.46;221310;1305;22631;-75
2023/08/13 20:55:20;;;;;;;5.90;5.40;;;;;;;24.28;67.24;99039.88;221500;1304;22576;-74
2023/08/13 21:00:22;;;;;;;5.80;5.20;;;;;;;24.27;67.21;99039.48;221503;1305;22610;-74
2023/08/13 21:05:27;;;;;;;5.80;5.30;;;;;;;24.27;67.06;99037.92;221608;1305;22578;-74
2023/08/13 21:10:35;;;;;;;6.00;5.20;;;;;;;24.27;66.96;99034.20;221340;1304;22571;-75
2023/08/13 21:15:37;;;;;;;8.00;5.30;;;;;;;24.25;66.95;99029.17;221557;1306;23802;-74
2023/08/13 21:20:39;;;;;;;9.20;5.50;;;;;;;24.21;66.95;99035.41;221490;1305;22605;-75
2023/08/13 21:25:41;;;;;;;6.00;5.20;;;;;;;24.16;66.98;99031.59;221511;1305;24806;-75
2023/08/13 21:30:43;;;;;;;6.10;5.30;;;;;;;24.11;67.04;99037.41;221530;1303;22875;-76
2023/08/13 21:35:45;;;;;;;6.10;5.50;;;;;;;24.04;67.14;99040.00;221451;1292;22585;-75
2023/08/13 21:40:46;;;;;;;6.10;5.40;;;;;;;23.97;67.22;99038.70;221548;1301;22792;-75
2023/08/13 21:45:48;;;;;;;5.90;5.00;;;;;;;23.91;67.43;99039.23;221240;1301;22652;-74
2023/08/13 21:50:50;;;;;;;6.10;5.50;;;;;;;23.86;67.43;99042.48;221584;1305;22605;-75
2023/08/13 21:55:54;;;;;;;6.30;5.70;;;;;;;23.81;67.71;99037.12;221476;1304;22585;-74
2023/08/13 22:00:56;;;;;;;8.40;6.10;;;;;;;23.74;68.04;99031.98;221506;1301;22600;-75
2023/08/13 22:05:58;;;;;;;7.90;6.90;;;;;;;23.67;68.27;99023.33;221483;1301;22601;-75
2023/08/13 22:11:00;;;;;;;7.10;6.50;;;;;;;23.60;68.46;99018.62;221386;1305;24260;-74
2023/08/13 22:16:02;;;;;;;8.50;7.10;;;;;;;23.54;68.71;99021.15;221357;1304;22811;-74
2023/08/13 22:21:04;;;;;;;6.90;6.30;;;;;;;23.47;68.80;99024.92;221428;1304;22598;-74
2023/08/13 22:26:06;;;;;;;8.10;6.10;;;;;;;23.39;68.98;99034.08;221285;1306;24959;-74
2023/08/13 22:31:19;;;;;;;7.00;6.30;;;;;;;23.29;68.93;99036.95;221488;1292;22582;-74
2023/08/13 22:36:21;;;;;;;7.10;6.40;;;;;;;23.19;69.23;99042.09;221531;1301;22628;-74
2023/08/13 22:41:23;;;;;;;7.00;6.40;;;;;;;23.10;69.46;99045.45;221473;1304;22598;-74
2023/08/13 22:46:27;;;;;;;7.70;6.90;;;;;;;23.01;69.91;99042.13;221484;1305;22616;-74
2023/08/13 22:51:29;;;;;;;7.30;6.60;;;;;;;22.92;70.12;99041.80;221334;1305;162754;-74
2023/08/13 22:56:34;;;;;;;12.90;6.80;;;;;;;22.80;70.38;99039.10;221451;1301;24251;-75
2023/08/13 23:01:36;;;;;;;6.60;5.90;;;;;;;22.66;70.64;99032.20;221487;1302;22591;-74
2023/08/13 23:06:38;;;;;;;7.50;6.70;;;;;;;22.48;70.96;99028.91;221544;1301;22568;-74
2023/08/13 23:11:40;;;;;;;7.00;6.20;;;;;;;22.33;71.09;99034.06;221572;1301;22603;-74
2023/08/13 23:16:42;;;;;;;6.30;5.70;;;;;;;22.21;71.28;99031.45;221375;1303;22571;-74
2023/08/13 23:21:44;;;;;;;6.70;6.10;;;;;;;22.11;71.45;99024.48;221533;1282;22595;-74
2023/08/13 23:26:47;;;;;;;6.20;5.60;;;;;;;22.01;71.49;99028.64;221545;1301;23041;-74